Time;durP1;ratioP1;P1;durP2;ratioP2;P2;SDS_P1;SDS_P2;PMS_P1;PMS_P2;Temp;Humidity;BMP_temperature;BMP_pressure;BME280_temperature;BME280_humidity;BME280_pressure;Samples;Min_cycle;Max_cycle;Signal;HPM_P1;HPM_P2
2023/08/28 00:01:05;;;;;;;7.87;4.63;;;;;;;16.01;90.90;100425.50;5050100;28;20215;-74
2023/08/28 00:03:33;;;;;;;5.43;4.87;;;;;;;15.98;90.99;100434.22;5048251;28;20213;-73
2023/08/28 00:05:59;;;;;;;9.70;5.20;;;;;;;15.98;91.19;100434.22;5051157;28;20191;-74
2023/08/28 00:08:26;;;;;;;5.73;4.30;;;;;;;15.96;91.10;100439.16;5039066;28;20222;-74
2023/08/28 00:10:52;;;;;;;9.00;4.90;;;;;;;15.96;91.41;100443.69;5051518;28;20672;-74
2023/08/28 00:13:19;;;;;;;7.47;4.67;;;;;;;15.94;90.97;100432.66;5039567;28;20825;-76
2023/08/28 00:15:45;;;;;;;7.30;4.73;;;;;;;15.93;91.07;100431.88;5046357;28;20217;-74
2023/08/28 00:18:12;;;;;;;7.43;4.77;;;;;;;15.91;90.96;100428.81;5050726;28;20198;-74
2023/08/28 00:20:41;;;;;;;5.63;4.70;;;;;;;15.90;90.98;100429.19;5050300;28;20724;-74
2023/08/28 00:23:07;;;;;;;6.30;4.90;;;;;;;15.87;90.98;100446.66;5052929;28;20197;-74
2023/08/28 00:25:33;;;;;;;5.67;4.43;;;;;;;15.84;91.33;100444.72;5052251;28;21685;-74
2023/08/28 00:28:00;;;;;;;8.37;4.63;;;;;;;15.83;91.32;100448.50;5039802;28;20230;-74
2023/08/28 00:30:28;;;;;;;5.57;3.87;;;;;;;15.83;91.30;100453.09;5056015;28;20707;-75
2023/08/28 00:32:55;;;;;;;4.70;4.10;;;;;;;15.80;91.01;100451.13;5039626;28;20209;-75
2023/08/28 00:35:22;;;;;;;4.40;3.80;;;;;;;15.78;91.28;100454.16;5050362;28;20186;-74
2023/08/28 00:37:50;;;;;;;4.80;4.00;;;;;;;15.74;91.13;100456.00;5035726;28;20201;-74
2023/08/28 00:40:16;;;;;;;4.10;3.70;;;;;;;15.73;90.79;100454.47;5056105;28;20691;-74
2023/08/28 00:42:43;;;;;;;7.37;3.90;;;;;;;15.72;91.05;100454.81;5036004;28;20216;-74
2023/08/28 00:45:10;;;;;;;4.93;3.70;;;;;;;15.69;91.01;100448.31;5038875;28;20264;-75
2023/08/28 00:47:36;;;;;;;8.87;3.77;;;;;;;15.65;91.19;100450.19;5050665;28;20198;-74
2023/08/28 00:50:04;;;;;;;4.63;4.13;;;;;;;15.62;90.56;100450.16;5037272;28;20691;-74
2023/08/28 00:52:31;;;;;;;4.03;3.50;;;;;;;15.60;90.74;100458.50;5052495;28;20351;-74
2023/08/28 00:55:00;;;;;;;3.97;3.60;;;;;;;15.58;90.91;100460.75;5051921;28;20690;-73
2023/08/28 00:57:29;;;;;;;5.73;3.83;;;;;;;15.54;91.34;100457.28;5057335;28;20576;-74
2023/08/28 00:59:56;;;;;;;7.17;3.90;;;;;;;15.55;91.48;100460.69;5056324;28;20239;-74
2023/08/28 01:02:23;;;;;;;7.47;3.67;;;;;;;15.50;91.09;100455.69;5038888;28;20206;-74
2023/08/28 01:04:52;;;;;;;3.50;3.10;;;;;;;15.49;91.49;100462.94;5039381;28;20949;-74
2023/08/28 01:07:22;;;;;;;4.20;3.40;;;;;;;15.44;91.21;100462.47;5037655;28;20592;-74
2023/08/28 01:10:02;;;;;;;4.93;3.30;;;;;;;15.40;91.51;100457.09;5039113;28;20781;-74
2023/08/28 01:12:39;;;;;;;4.73;3.70;;;;;;;15.38;91.37;100455.91;5055642;28;20199;-74
2023/08/28 01:15:11;;;;;;;5.97;3.80;;;;;;;15.36;91.50;100466.91;5036838;28;20208;-74
2023/08/28 01:17:39;;;;;;;3.33;3.03;;;;;;;15.33;91.73;100464.22;5038144;28;20637;-74
2023/08/28 01:20:11;;;;;;;5.73;3.73;;;;;;;15.30;91.79;100472.88;5055240;28;20582;-74
2023/08/28 01:22:43;;;;;;;4.17;3.50;;;;;;;15.25;90.92;100465.97;5035220;28;20238;-74
2023/08/28 01:25:12;;;;;;;6.23;3.53;;;;;;;15.23;90.86;100465.56;5038905;28;20203;-74
2023/08/28 01:27:40;;;;;;;3.87;3.37;;;;;;;15.19;90.95;100469.28;5052135;28;20196;-74
2023/08/28 01:30:09;;;;;;;5.00;3.33;;;;;;;15.15;90.89;100469.25;5032080;28;20340;-74
2023/08/28 01:32:35;;;;;;;5.83;2.80;;;;;;;15.12;91.49;100469.19;5034550;28;20227;-74
2023/08/28 01:35:05;;;;;;;3.53;3.23;;;;;;;15.09;90.66;100477.88;5053402;28;20197;-74
2023/08/28 01:37:40;;;;;;;3.50;3.20;;;;;;;15.05;91.12;100480.50;5038790;28;20678;-74
2023/08/28 01:40:14;;;;;;;4.93;3.20;;;;;;;15.02;91.29;100475.91;5055540;28;20226;-74
2023/08/28 01:42:42;;;;;;;9.70;3.00;;;;;;;14.97;91.21;100486.84;5054723;28;20205;-75
2023/08/28 01:45:10;;;;;;;5.80;3.20;;;;;;;14.95;90.88;100489.06;5055432;28;20211;-75
2023/08/28 01:47:37;;;;;;;6.77;2.97;;;;;;;14.90;91.06;100494.69;5054713;28;20221;-75
2023/08/28 01:50:04;;;;;;;4.03;3.17;;;;;;;14.88;91.14;100496.94;5033018;28;20314;-74
2023/08/28 01:52:30;;;;;;;3.50;2.77;;;;;;;14.85;91.11;100496.88;5031893;28;20206;-74
2023/08/28 01:54:56;;;;;;;9.47;3.10;;;;;;;14.80;91.61;100502.50;5033131;28;20917;-74
2023/08/28 01:57:24;;;;;;;4.90;3.33;;;;;;;14.76;90.82;100499.00;5033224;28;20196;-75
2023/08/28 01:59:51;;;;;;;3.73;2.60;;;;;;;14.72;90.96;100490.97;5033290;28;20318;-74
2023/08/28 02:02:17;;;;;;;5.10;2.90;;;;;;;14.70;91.28;100485.22;5037533;28;20202;-75
2023/08/28 02:04:44;;;;;;;4.40;3.20;;;;;;;14.68;91.54;100482.19;5053084;28;20675;-74
2023/08/28 02:07:10;;;;;;;4.33;2.63;;;;;;;14.65;92.00;100472.25;5037920;28;20200;-74
2023/08/28 02:09:36;;;;;;;3.47;3.17;;;;;;;14.64;92.07;100468.06;5050722;28;20234;-73
2023/08/28 02:12:03;;;;;;;2.90;2.70;;;;;;;14.64;92.80;100469.97;5049872;28;20682;-76
2023/08/28 02:14:31;;;;;;;5.33;3.10;;;;;;;14.62;92.89;100472.97;5039985;28;20206;-74
2023/08/28 02:16:57;;;;;;;3.40;3.10;;;;;;;14.57;93.40;100467.94;5038922;28;20360;-74
2023/08/28 02:19:24;;;;;;;2.90;2.70;;;;;;;14.57;93.45;100465.28;5033030;28;20207;-75
2023/08/28 02:21:50;;;;;;;6.17;3.27;;;;;;;14.55;93.68;100464.09;5034447;28;20202;-74
2023/08/28 02:24:19;;;;;;;8.23;3.27;;;;;;;14.51;93.34;100477.34;5050120;28;20634;-75
2023/08/28 02:26:45;;;;;;;8.60;3.10;;;;;;;14.48;93.30;100482.56;5044421;28;20207;-75
2023/08/28 02:29:12;;;;;;;8.33;3.20;;;;;;;14.47;93.56;100489.78;5040806;28;20210;-74
2023/08/28 02:31:40;;;;;;;3.60;3.00;;;;;;;14.45;93.71;100489.38;5054707;28;20203;-73
2023/08/28 02:34:07;;;;;;;5.30;3.03;;;;;;;14.43;93.82;100480.22;5055307;28;20318;-74
2023/08/28 02:36:33;;;;;;;4.53;3.20;;;;;;;14.39;93.51;100474.06;5052497;28;20286;-74
2023/08/28 02:38:59;;;;;;;3.40;3.10;;;;;;;14.35;93.70;100476.69;5049540;28;20692;-74
2023/08/28 02:41:26;;;;;;;7.37;3.40;;;;;;;14.32;93.79;100473.94;5051702;28;20720;-74
2023/08/28 02:43:52;;;;;;;4.13;3.23;;;;;;;14.29;93.87;100478.06;5038911;28;20708;-75
2023/08/28 02:46:18;;;;;;;3.10;2.80;;;;;;;14.27;94.21;100480.31;5038119;28;20451;-75
2023/08/28 02:48:46;;;;;;;3.60;3.30;;;;;;;14.22;93.77;100485.91;5043225;28;20221;-74
2023/08/28 02:51:14;;;;;;;3.53;3.23;;;;;;;14.19;93.99;100504.41;5038773;28;20224;-74
2023/08/28 02:53:40;;;;;;;4.13;3.10;;;;;;;14.17;94.44;100515.38;5055828;28;20214;-74
2023/08/28 02:56:26;;;;;;;5.80;3.43;;;;;;;14.14;93.98;100525.94;5038124;28;20216;-74
2023/08/28 02:58:53;;;;;;;3.63;3.13;;;;;;;14.08;93.72;100532.66;5048821;28;20220;-74
2023/08/28 03:01:21;;;;;;;4.87;3.17;;;;;;;14.02;94.05;100534.78;5039077;28;20227;-74
2023/08/28 03:03:48;;;;;;;3.90;3.00;;;;;;;13.98;93.34;100539.25;5050320;28;20306;-74
2023/08/28 03:06:15;;;;;;;4.77;3.17;;;;;;;13.96;93.95;100536.19;5051541;28;20771;-75
2023/08/28 03:08:41;;;;;;;4.03;3.00;;;;;;;13.96;93.78;100535.41;5050507;28;20246;-74
2023/08/28 03:11:08;;;;;;;6.80;3.23;;;;;;;13.90;93.95;100540.25;5035124;28;20601;-74
2023/08/28 03:13:35;;;;;;;6.43;3.17;;;;;;;13.88;94.05;100541.72;5038967;28;20206;-74
2023/08/28 03:16:02;;;;;;;3.77;3.30;;;;;;;13.86;94.22;100546.56;5037983;28;20557;-74
2023/08/28 03:18:29;;;;;;;3.90;3.07;;;;;;;13.83;94.53;100553.38;5035832;28;20573;-73
2023/08/28 03:20:57;;;;;;;5.03;3.40;;;;;;;13.83;94.84;100550.72;5038856;28;20317;-74
2023/08/28 03:23:22;;;;;;;3.57;3.27;;;;;;;13.81;94.84;100544.22;5042950;28;20669;-75
2023/08/28 03:25:50;;;;;;;4.50;3.57;;;;;;;13.77;94.78;100554.75;5038039;28;20209;-75
2023/08/28 03:28:16;;;;;;;3.50;3.00;;;;;;;13.77;95.10;100556.66;5051965;28;20573;-74
2023/08/28 03:30:42;;;;;;;6.87;3.20;;;;;;;13.73;94.98;100566.41;5033284;28;20225;-75
2023/08/28 03:33:09;;;;;;;4.67;3.27;;;;;;;13.72;94.91;100562.97;5039015;28;20211;-75
2023/08/28 03:35:35;;;;;;;4.40;3.27;;;;;;;13.71;95.22;100577.34;5041558;28;20213;-74
2023/08/28 03:38:03;;;;;;;3.97;3.40;;;;;;;13.67;95.26;100568.53;5050355;28;20555;-74
2023/08/28 03:40:30;;;;;;;4.30;3.10;;;;;;;13.62;95.03;100568.06;5059206;28;20248;-73
2023/08/28 03:42:57;;;;;;;5.47;3.43;;;;;;;13.59;94.86;100561.56;5054665;28;20214;-74
2023/08/28 03:45:23;;;;;;;4.90;3.40;;;;;;;13.54;94.52;100564.47;5043136;28;20210;-74
2023/08/28 03:47:51;;;;;;;4.07;3.37;;;;;;;13.49;94.04;100566.59;5059712;28;20200;-74
2023/08/28 03:50:17;;;;;;;5.63;3.40;;;;;;;13.50;94.13;100574.22;5054633;28;20237;-75
2023/08/28 03:52:43;;;;;;;6.60;3.73;;;;;;;13.50;94.26;100570.81;5037419;28;20391;-74
2023/08/28 03:55:11;;;;;;;8.00;3.40;;;;;;;13.49;94.88;100577.22;5036252;28;20209;-74
2023/08/28 03:57:38;;;;;;;3.50;3.20;;;;;;;13.47;95.07;100574.16;5054541;28;20197;-74
2023/08/28 04:00:10;;;;;;;3.60;3.30;;;;;;;13.45;95.08;100569.19;5042226;28;20222;-74
2023/08/28 04:02:41;;;;;;;3.60;3.10;;;;;;;13.43;94.97;100563.47;5053900;28;20703;-74
2023/08/28 04:05:08;;;;;;;3.93;3.53;;;;;;;13.40;94.51;100566.03;5055381;28;20275;-74
2023/08/28 04:07:35;;;;;;;5.33;3.53;;;;;;;13.38;94.35;100555.00;5041480;28;20233;-75
2023/08/28 04:10:01;;;;;;;5.40;3.03;;;;;;;13.36;94.26;100559.88;5038652;28;20743;-76
2023/08/28 04:12:29;;;;;;;5.90;3.20;;;;;;;13.34;94.38;100554.13;5036408;28;20324;-74
2023/08/28 04:14:57;;;;;;;4.43;3.00;;;;;;;13.33;94.44;100565.84;5043054;28;20205;-74
2023/08/28 04:17:24;;;;;;;3.47;3.03;;;;;;;13.33;94.55;100566.63;5040924;28;20682;-75
2023/08/28 04:19:51;;;;;;;3.63;3.07;;;;;;;13.35;94.97;100571.59;5041439;28;20229;-74
2023/08/28 04:22:18;;;;;;;5.63;3.37;;;;;;;13.35;95.34;100563.66;5054987;28;20747;-74
2023/08/28 04:24:46;;;;;;;3.87;3.23;;;;;;;13.34;95.37;100573.47;5040335;28;20212;-74
2023/08/28 04:27:12;;;;;;;5.23;3.20;;;;;;;13.34;95.20;100570.81;5042316;28;20190;-74
2023/08/28 04:29:41;;;;;;;3.80;3.40;;;;;;;13.34;95.39;100572.69;5042120;28;20237;-74
2023/08/28 04:32:07;;;;;;;4.23;3.30;;;;;;;13.34;95.18;100568.16;5058549;28;20295;-74
2023/08/28 04:34:34;;;;;;;6.10;2.90;;;;;;;13.33;95.64;100569.28;5044306;28;20202;-74
2023/08/28 04:37:02;;;;;;;5.27;3.10;;;;;;;13.34;96.34;100554.91;5037431;28;20315;-74
2023/08/28 04:39:29;;;;;;;6.17;3.20;;;;;;;13.37;96.26;100554.22;5044425;28;20233;-74
2023/08/28 04:41:55;;;;;;;5.20;3.13;;;;;;;13.37;96.36;100545.50;5055375;28;20732;-74
2023/08/28 04:44:22;;;;;;;3.80;3.40;;;;;;;13.41;96.59;100547.09;5058561;28;20206;-75
2023/08/28 04:46:50;;;;;;;4.20;3.57;;;;;;;13.42;96.87;100545.25;5053446;28;20217;-74
2023/08/28 04:49:17;;;;;;;4.60;3.53;;;;;;;13.47;97.27;100552.94;5053435;28;20832;-74
2023/08/28 04:51:43;;;;;;;6.50;3.60;;;;;;;13.52;97.63;100563.28;5036147;28;20209;-75
2023/08/28 04:54:10;;;;;;;9.20;4.10;;;;;;;13.56;97.74;100556.94;5043131;28;20213;-74
2023/08/28 04:56:37;;;;;;;4.60;4.20;;;;;;;13.58;97.99;100561.91;5052817;28;20205;-74
2023/08/28 04:59:05;;;;;;;4.73;4.27;;;;;;;13.63;98.04;100561.63;5040952;28;20671;-74
2023/08/28 05:01:32;;;;;;;4.83;4.30;;;;;;;13.67;98.21;100549.97;5042813;28;20288;-74
2023/08/28 05:03:59;;;;;;;6.77;4.50;;;;;;;13.72;98.12;100551.59;5039046;28;20211;-74
2023/08/28 05:06:26;;;;;;;7.57;4.80;;;;;;;13.71;97.64;100555.38;5043217;28;20643;-74
2023/08/28 05:08:52;;;;;;;8.80;4.63;;;;;;;13.74;97.68;100560.75;5037048;28;20215;-74
2023/08/28 05:11:19;;;;;;;5.80;5.20;;;;;;;13.78;97.66;100555.53;5051789;28;20719;-74
2023/08/28 05:13:47;;;;;;;6.07;5.33;;;;;;;13.81;97.20;100546.88;5042424;28;20209;-74
2023/08/28 05:16:13;;;;;;;7.63;5.10;;;;;;;13.82;97.22;100553.72;5035502;28;20206;-74
2023/08/28 05:18:40;;;;;;;6.87;5.00;;;;;;;13.85;96.79;100550.34;5039855;28;20214;-74
2023/08/28 05:21:08;;;;;;;6.27;5.03;;;;;;;13.87;96.81;100558.75;5041634;28;20240;-75
2023/08/28 05:23:35;;;;;;;6.83;5.57;;;;;;;13.91;96.63;100559.56;5052957;28;20281;-73
2023/08/28 05:26:01;;;;;;;6.00;5.23;;;;;;;13.97;96.74;100566.19;5041771;28;20217;-75
2023/08/28 05:28:31;;;;;;;8.37;5.87;;;;;;;14.03;96.21;100559.47;5039863;28;20209;-74
2023/08/28 05:30:57;;;;;;;7.87;6.63;;;;;;;14.11;96.37;100559.25;5040416;28;20249;-75
2023/08/28 05:33:25;;;;;;;9.00;5.90;;;;;;;14.17;96.35;100568.47;5043280;28;20288;-73
2023/08/28 05:35:51;;;;;;;6.77;5.90;;;;;;;14.23;95.59;100569.78;5058035;28;20806;-75
2023/08/28 05:38:20;;;;;;;8.53;6.77;;;;;;;14.30;95.09;100571.81;5051860;28;20264;-75
2023/08/28 05:40:47;;;;;;;5.93;5.37;;;;;;;14.38;95.11;100576.91;5052660;28;20223;-75
2023/08/28 05:43:13;;;;;;;7.47;6.37;;;;;;;14.43;94.79;100576.63;5041783;28;20198;-75
2023/08/28 05:45:39;;;;;;;10.03;6.30;;;;;;;14.50;94.41;100583.97;5039455;28;20215;-74
2023/08/28 05:48:06;;;;;;;8.50;5.97;;;;;;;14.56;94.56;100577.25;5051717;28;20694;-75
2023/08/28 05:50:33;;;;;;;9.17;6.50;;;;;;;14.66;94.69;100577.44;5041065;28;20229;-74
2023/08/28 05:53:01;;;;;;;6.90;5.93;;;;;;;14.74;94.14;100581.00;5040501;28;20636;-74
2023/08/28 05:55:28;;;;;;;7.43;5.93;;;;;;;14.81;93.49;100591.75;5038363;28;20228;-75
2023/08/28 05:57:55;;;;;;;9.87;6.63;;;;;;;14.87;93.55;100596.44;5038443;28;20206;-75
2023/08/28 06:00:21;;;;;;;8.00;6.27;;;;;;;14.91;91.72;100591.19;5031705;28;20227;-73
2023/08/28 06:02:49;;;;;;;6.90;6.13;;;;;;;14.98;91.49;100585.97;5054517;28;20209;-74
2023/08/28 06:05:15;;;;;;;6.60;5.77;;;;;;;15.03;90.75;100591.00;5049935;28;20629;-74
2023/08/28 06:07:42;;;;;;;7.63;5.60;;;;;;;15.10;90.29;100593.78;5032821;28;20283;-75
2023/08/28 06:10:11;;;;;;;6.60;6.00;;;;;;;15.17;89.55;100601.88;5038041;28;20229;-74
2023/08/28 06:12:39;;;;;;;7.13;5.87;;;;;;;15.25;89.78;100595.53;5047489;28;20200;-76
2023/08/28 06:15:06;;;;;;;8.97;6.30;;;;;;;15.33;90.04;100591.91;5054852;28;20201;-75
2023/08/28 06:17:32;;;;;;;7.53;5.73;;;;;;;15.40;88.78;100584.81;5053207;28;20212;-75
2023/08/28 06:19:59;;;;;;;5.80;5.30;;;;;;;15.45;87.59;100595.16;5036045;28;20234;-75
2023/08/28 06:22:25;;;;;;;6.33;4.97;;;;;;;15.54;87.79;100594.91;5036984;28;20915;-75
2023/08/28 06:24:53;;;;;;;5.80;4.17;;;;;;;15.62;87.46;100599.97;5035891;28;20672;-75
2023/08/28 06:27:20;;;;;;;4.03;3.60;;;;;;;15.71;87.82;100591.72;5034221;28;20203;-75
2023/08/28 06:29:47;;;;;;;5.30;3.60;;;;;;;15.76;87.10;100594.09;5033492;28;21254;-75
2023/08/28 06:32:14;;;;;;;3.87;3.00;;;;;;;15.81;86.33;100593.78;5045619;28;20216;-75
2023/08/28 06:34:41;;;;;;;3.50;3.20;;;;;;;15.88;86.89;100591.97;5044875;28;20284;-76
2023/08/28 06:37:07;;;;;;;3.23;2.93;;;;;;;15.96;86.58;100604.28;5047194;28;20207;-76
2023/08/28 06:39:33;;;;;;;2.63;2.43;;;;;;;16.03;86.21;100603.59;5046886;28;20454;-75
2023/08/28 06:42:00;;;;;;;3.13;2.57;;;;;;;16.08;86.20;100604.06;5044706;28;20249;-75
2023/08/28 06:44:27;;;;;;;3.73;2.63;;;;;;;16.11;85.14;100603.34;5033012;28;20637;-74
2023/08/28 06:46:54;;;;;;;2.40;2.20;;;;;;;16.15;84.94;100611.38;5047439;28;20214;-75
2023/08/28 06:49:21;;;;;;;3.10;2.77;;;;;;;16.19;84.68;100606.88;5055986;28;20215;-75
2023/08/28 06:51:47;;;;;;;3.20;2.90;;;;;;;16.23;84.35;100602.31;5041300;28;20217;-74
2023/08/28 06:54:14;;;;;;;3.03;2.47;;;;;;;16.24;83.67;100611.88;5054697;28;21384;-75
2023/08/28 06:56:40;;;;;;;4.57;3.10;;;;;;;16.27;84.07;100619.91;5057061;28;20580;-75
2023/08/28 06:59:06;;;;;;;3.50;3.20;;;;;;;16.26;82.99;100607.69;5054324;28;20582;-76
2023/08/28 07:01:33;;;;;;;2.87;2.63;;;;;;;16.27;82.79;100606.59;5053004;28;20219;-75
2023/08/28 07:04:00;;;;;;;4.33;2.57;;;;;;;16.30;83.08;100613.84;5051102;28;20203;-75
2023/08/28 07:06:27;;;;;;;4.47;2.70;;;;;;;16.34;83.17;100616.53;5048894;28;20214;-75
2023/08/28 07:08:53;;;;;;;5.07;3.00;;;;;;;16.35;83.14;100612.78;5046562;28;20194;-76
2023/08/28 07:11:20;;;;;;;4.33;3.20;;;;;;;16.39;83.16;100610.91;5045796;28;20422;-74
2023/08/28 07:13:46;;;;;;;3.63;3.33;;;;;;;16.45;84.04;100618.25;5045719;28;20217;-76
2023/08/28 07:16:12;;;;;;;4.10;3.33;;;;;;;16.49;83.40;100616.41;5049005;28;20673;-76
2023/08/28 07:18:39;;;;;;;5.33;3.93;;;;;;;16.56;83.40;100621.78;5049482;28;20205;-76
2023/08/28 07:21:06;;;;;;;3.97;3.30;;;;;;;16.61;82.59;100618.81;5048096;28;20783;-76
2023/08/28 07:23:36;;;;;;;4.80;3.33;;;;;;;16.69;82.86;100620.44;5046461;28;20685;-76
2023/08/28 07:26:02;;;;;;;4.37;3.00;;;;;;;16.75;82.25;100624.31;5048469;28;20195;-76
2023/08/28 07:28:29;;;;;;;3.53;3.23;;;;;;;16.81;81.95;100628.16;5047885;28;20206;-74
2023/08/28 07:31:00;;;;;;;5.47;3.13;;;;;;;16.86;80.63;100624.44;5047353;28;20237;-75
2023/08/28 07:33:26;;;;;;;4.20;2.93;;;;;;;16.92;81.01;100629.03;5052105;28;20203;-75
2023/08/28 07:35:52;;;;;;;3.20;2.90;;;;;;;16.96;79.57;100640.53;5034666;28;20789;-75
2023/08/28 07:38:20;;;;;;;3.50;3.20;;;;;;;16.97;78.98;100644.72;5047068;28;20692;-75
2023/08/28 07:40:47;;;;;;;3.33;2.80;;;;;;;17.04;80.61;100638.69;5046250;28;20830;-75
2023/08/28 07:43:14;;;;;;;3.73;2.90;;;;;;;17.06;79.21;100625.75;5046158;28;20724;-75
2023/08/28 07:45:41;;;;;;;5.17;3.20;;;;;;;17.11;79.30;100631.53;5045737;28;20219;-75
2023/08/28 07:48:07;;;;;;;3.13;2.90;;;;;;;17.15;79.11;100634.22;5047205;28;20207;-76
2023/08/28 07:50:34;;;;;;;3.47;2.77;;;;;;;17.19;79.30;100638.44;5045076;28;20233;-74
2023/08/28 07:53:00;;;;;;;2.70;2.50;;;;;;;17.24;79.54;100632.03;5049137;28;20693;-74
2023/08/28 07:55:28;;;;;;;3.17;2.87;;;;;;;17.25;77.11;100628.22;5028021;28;20209;-75
2023/08/28 07:57:55;;;;;;;3.73;2.83;;;;;;;17.25;76.77;100637.00;5033135;28;20216;-76
2023/08/28 08:00:22;;;;;;;5.03;3.10;;;;;;;17.31;77.23;100632.06;5045012;28;20893;-75
2023/08/28 08:02:49;;;;;;;3.30;2.70;;;;;;;17.33;77.85;100629.81;5044046;28;20245;-76
2023/08/28 08:05:16;;;;;;;2.70;2.50;;;;;;;17.35;77.54;100630.22;5031213;28;20203;-75
2023/08/28 08:07:42;;;;;;;6.37;2.60;;;;;;;17.38;75.98;100621.47;5044481;28;20335;-76
2023/08/28 08:10:10;;;;;;;4.33;2.60;;;;;;;17.43;76.45;100619.25;5044388;28;20238;-76
2023/08/28 08:12:39;;;;;;;4.17;2.40;;;;;;;17.47;76.65;100612.03;5044706;28;20203;-76
2023/08/28 08:15:06;;;;;;;2.70;2.43;;;;;;;17.47;75.79;100608.59;5050948;28;20199;-75
2023/08/28 08:17:33;;;;;;;4.00;2.60;;;;;;;17.52;76.13;100600.22;5043618;28;20206;-74
2023/08/28 08:19:59;;;;;;;3.00;2.70;;;;;;;17.58;77.64;100601.41;5043443;28;20302;-75
2023/08/28 08:22:25;;;;;;;2.67;2.33;;;;;;;17.59;75.62;100600.31;5043880;28;20927;-75
2023/08/28 08:24:53;;;;;;;2.70;2.50;;;;;;;17.65;75.28;100585.47;5031798;28;20213;-74
2023/08/28 08:27:19;;;;;;;3.10;2.50;;;;;;;17.70;75.26;100580.53;5043545;28;20199;-73
2023/08/28 08:29:48;;;;;;;3.10;2.73;;;;;;;17.73;75.30;100576.34;5042930;28;20238;-73
2023/08/28 08:32:16;;;;;;;2.53;2.33;;;;;;;17.79;73.69;100588.19;5042408;28;20222;-74
2023/08/28 08:34:42;;;;;;;3.17;2.70;;;;;;;17.81;71.16;100581.34;5023528;28;20207;-74
2023/08/28 08:37:09;;;;;;;3.87;2.43;;;;;;;17.87;73.11;100587.09;5045095;28;20206;-76
2023/08/28 08:39:35;;;;;;;6.67;2.30;;;;;;;17.90;72.89;100576.44;5042579;28;20223;-75
2023/08/28 08:42:01;;;;;;;3.63;2.20;;;;;;;17.94;73.43;100577.22;5049061;28;20212;-76
2023/08/28 08:44:28;;;;;;;3.07;2.60;;;;;;;17.98;73.65;100579.91;5041528;28;21231;-72
2023/08/28 08:46:57;;;;;;;3.03;2.40;;;;;;;18.01;73.34;100579.94;5041826;28;20709;-74
2023/08/28 08:49:26;;;;;;;3.80;2.60;;;;;;;18.05;72.79;100577.28;5042281;28;20206;-73
2023/08/28 08:51:58;;;;;;;3.70;2.40;;;;;;;18.10;73.07;100580.34;5042149;28;20217;-76
2023/08/28 08:54:30;;;;;;;2.50;2.30;;;;;;;18.12;72.42;100574.66;5041645;28;20207;-76
2023/08/28 08:57:01;;;;;;;4.57;2.70;;;;;;;18.16;72.36;100570.84;5039516;28;20207;-74
2023/08/28 08:59:27;;;;;;;6.50;2.50;;;;;;;18.21;71.58;100570.47;5040862;28;20199;-74
2023/08/28 09:01:55;;;;;;;4.60;2.50;;;;;;;18.30;72.37;100578.13;5040823;28;20203;-72
2023/08/28 09:04:22;;;;;;;2.90;2.60;;;;;;;18.33;72.00;100572.84;5039919;28;20212;-73
2023/08/28 09:06:49;;;;;;;2.40;2.20;;;;;;;18.38;71.05;100580.47;5023856;28;20209;-73
2023/08/28 09:09:16;;;;;;;3.70;2.33;;;;;;;18.47;71.42;100583.56;5039693;28;20214;-74
2023/08/28 09:11:45;;;;;;;3.30;2.20;;;;;;;18.50;69.41;100582.84;5036755;28;20300;-75
2023/08/28 09:14:12;;;;;;;2.50;2.00;;;;;;;18.50;68.00;100587.41;5038371;28;20206;-74
2023/08/28 09:16:38;;;;;;;1.83;1.60;;;;;;;18.55;69.97;100587.03;5039093;28;20757;-73
2023/08/28 09:19:07;;;;;;;2.70;2.30;;;;;;;18.59;69.11;100599.28;5039263;28;20199;-72
2023/08/28 09:21:35;;;;;;;3.27;2.00;;;;;;;18.65;69.31;100608.47;5039325;28;20222;-73
2023/08/28 09:24:02;;;;;;;2.30;2.10;;;;;;;18.68;68.80;100607.72;5038033;28;20207;-73
2023/08/28 09:26:28;;;;;;;2.00;1.80;;;;;;;18.73;67.03;100603.91;5039360;28;20202;-74
2023/08/28 09:28:59;;;;;;;2.23;2.03;;;;;;;18.79;68.45;100616.53;5037614;28;20203;-73
2023/08/28 09:31:30;;;;;;;3.53;2.00;;;;;;;18.84;67.72;100624.19;5038348;28;20756;-74
2023/08/28 09:33:56;;;;;;;2.60;2.10;;;;;;;18.93;69.85;100621.16;5038735;28;20203;-74
2023/08/28 09:36:24;;;;;;;3.73;1.80;;;;;;;18.94;65.77;100625.34;5037772;28;20210;-74
2023/08/28 09:38:51;;;;;;;2.40;1.70;;;;;;;19.00;68.14;100637.97;5025785;28;20211;-73
2023/08/28 09:41:17;;;;;;;2.27;2.03;;;;;;;19.08;66.50;100641.41;5037974;28;20689;-74
2023/08/28 09:43:44;;;;;;;2.37;1.90;;;;;;;19.12;67.38;100640.28;5036765;28;20202;-74
2023/08/28 09:46:10;;;;;;;2.00;1.83;;;;;;;19.23;68.91;100640.31;5037793;28;20222;-74
2023/08/28 09:48:37;;;;;;;3.10;2.00;;;;;;;19.26;65.90;100628.88;5036327;28;20210;-73
2023/08/28 09:51:07;;;;;;;2.27;2.07;;;;;;;19.32;66.61;100633.47;5037072;28;20219;-74
2023/08/28 09:53:35;;;;;;;2.53;2.30;;;;;;;19.38;63.82;100625.78;5035589;28;20376;-74
2023/08/28 09:56:02;;;;;;;2.50;2.17;;;;;;;19.46;64.01;100624.66;5036045;28;20203;-74
2023/08/28 09:58:29;;;;;;;3.67;2.53;;;;;;;19.51;64.60;100632.31;5034084;28;20286;-75
2023/08/28 10:00:57;;;;;;;2.70;2.33;;;;;;;19.59;64.95;100629.25;5035701;28;20284;-73
2023/08/28 10:03:26;;;;;;;2.27;2.00;;;;;;;19.68;66.39;100628.84;5035896;28;20287;-74
2023/08/28 10:05:54;;;;;;;2.50;2.00;;;;;;;19.71;63.77;100631.50;5024590;28;20326;-74
2023/08/28 10:08:22;;;;;;;4.10;2.43;;;;;;;19.77;65.87;100627.28;5035801;28;20829;-73
2023/08/28 10:10:52;;;;;;;2.50;2.30;;;;;;;19.79;61.58;100618.88;5034690;28;20222;-74
2023/08/28 10:13:21;;;;;;;3.40;2.00;;;;;;;19.83;62.54;100612.38;5017374;28;20288;-73
2023/08/28 10:15:54;;;;;;;4.77;1.83;;;;;;;19.87;62.56;100604.31;5039992;28;21187;-75
2023/08/28 10:18:26;;;;;;;3.13;2.10;;;;;;;19.94;62.22;100594.34;5034312;28;20683;-73
2023/08/28 10:20:54;;;;;;;2.20;2.00;;;;;;;19.98;61.11;100583.59;5033671;28;20229;-74
2023/08/28 10:23:21;;;;;;;3.13;2.10;;;;;;;20.03;61.56;100575.91;5034188;28;20203;-74
2023/08/28 10:25:50;;;;;;;2.30;1.80;;;;;;;20.10;62.30;100575.94;5032456;28;20336;-74
2023/08/28 10:28:18;;;;;;;3.67;2.30;;;;;;;20.11;63.11;100566.75;5034630;28;20202;-73
2023/08/28 10:30:45;;;;;;;6.57;2.67;;;;;;;20.15;61.26;100567.50;5022480;28;20227;-73
2023/08/28 10:33:14;;;;;;;2.80;1.93;;;;;;;20.14;62.11;100560.59;5023569;28;20277;-74
2023/08/28 10:35:42;;;;;;;3.60;2.30;;;;;;;20.20;61.49;100556.38;5020531;28;20589;-74
2023/08/28 10:38:10;;;;;;;2.60;2.10;;;;;;;20.22;59.35;100554.03;5033024;28;20856;-73
2023/08/28 10:40:36;;;;;;;2.43;2.23;;;;;;;20.26;61.81;100560.16;5038586;28;20234;-74
2023/08/28 10:43:05;;;;;;;3.60;2.20;;;;;;;20.31;60.48;100564.34;5034438;28;21262;-73
2023/08/28 10:45:37;;;;;;;2.87;2.00;;;;;;;20.29;62.13;100566.66;5032722;28;20210;-74
2023/08/28 10:48:04;;;;;;;3.83;2.43;;;;;;;20.32;60.98;100568.53;5032362;28;20195;-74
2023/08/28 10:50:35;;;;;;;4.03;2.30;;;;;;;20.30;65.33;100566.28;5015651;28;20587;-74
2023/08/28 10:53:02;;;;;;;2.37;2.17;;;;;;;20.23;60.20;100571.66;5032927;28;20260;-74
2023/08/28 10:55:28;;;;;;;2.70;1.83;;;;;;;20.13;58.67;100561.75;5032681;28;20220;-73
2023/08/28 10:57:54;;;;;;;1.87;1.70;;;;;;;20.13;59.55;100566.34;5032457;28;20210;-74
2023/08/28 11:00:24;;;;;;;2.47;2.07;;;;;;;20.13;59.28;100563.69;5033406;28;20234;-74
2023/08/28 11:03:05;;;;;;;3.27;2.10;;;;;;;20.09;58.97;100560.22;5020628;28;20211;-74
2023/08/28 11:05:32;;;;;;;1.70;1.60;;;;;;;20.11;59.96;100561.38;5039684;28;20229;-73
2023/08/28 11:08:03;;;;;;;4.67;1.83;;;;;;;20.12;59.69;100546.81;5032558;28;20217;-73
2023/08/28 11:10:30;;;;;;;2.83;1.77;;;;;;;20.15;63.04;100556.78;5034359;28;20226;-72
2023/08/28 11:13:01;;;;;;;3.63;2.00;;;;;;;20.13;61.71;100553.69;5032298;28;20898;-75
2023/08/28 11:15:31;;;;;;;2.80;1.80;;;;;;;20.09;60.51;100561.00;5033724;28;20930;-74
2023/08/28 11:18:26;;;;;;;2.60;1.73;;;;;;;20.11;61.05;100565.97;5019314;28;20249;-72
2023/08/28 11:20:53;;;;;;;1.77;1.67;;;;;;;20.09;60.58;100568.28;5033779;28;20351;-74
2023/08/28 11:23:21;;;;;;;2.33;1.87;;;;;;;20.08;59.85;100574.81;5034257;28;20558;-73
2023/08/28 11:25:48;;;;;;;2.03;1.77;;;;;;;20.03;59.01;100575.91;5028637;28;20213;-72